createdAt,value
2023-10-08T00:02:28.779Z,4.33
2023-10-08T00:04:55.793Z,4.97
2023-10-08T00:07:25.171Z,4.43
2023-10-08T00:09:53.737Z,4.80
2023-10-08T00:12:21.725Z,4.63
2023-10-08T00:14:54.397Z,4.40
2023-10-08T00:17:21.944Z,4.80
2023-10-08T00:19:53.775Z,4.53
2023-10-08T00:22:21.276Z,5.40
2023-10-08T00:24:50.619Z,4.60
2023-10-08T00:27:18.885Z,5.57
2023-10-08T00:29:46.332Z,5.30
2023-10-08T00:32:13.532Z,4.43
2023-10-08T00:34:42.876Z,5.27
2023-10-08T00:37:12.108Z,5.60
2023-10-08T00:39:40.818Z,4.53
2023-10-08T00:42:13.782Z,4.57
2023-10-08T00:44:49.217Z,4.93
2023-10-08T00:47:18.060Z,4.97
2023-10-08T00:49:45.257Z,4.03
2023-10-08T00:52:13.796Z,4.60
2023-10-08T00:55:00.418Z,4.30
2023-10-08T00:57:30.721Z,4.13
2023-10-08T01:00:00.355Z,4.77
2023-10-08T01:02:56.371Z,4.30
2023-10-08T01:05:43.043Z,4.97
2023-10-08T01:08:14.329Z,5.47
2023-10-08T01:10:48.332Z,4.50
2023-10-08T01:13:22.133Z,4.37
2023-10-08T01:15:51.942Z,4.90
2023-10-08T01:18:26.068Z,4.30
2023-10-08T01:20:53.974Z,4.83
2023-10-08T01:23:28.186Z,4.70
2023-10-08T01:26:13.831Z,5.10
2023-10-08T01:28:41.200Z,4.73
2023-10-08T01:31:08.569Z,5.33
2023-10-08T01:33:48.385Z,4.30
2023-10-08T01:36:15.178Z,4.40
2023-10-08T01:38:42.990Z,4.40
2023-10-08T01:41:19.916Z,4.10
2023-10-08T01:43:47.836Z,4.10
2023-10-08T01:46:16.722Z,4.70
2023-10-08T01:48:45.930Z,4.60
2023-10-08T01:51:20.375Z,4.10
2023-10-08T01:53:47.435Z,4.50
2023-10-08T01:56:14.228Z,4.17
2023-10-08T01:58:41.012Z,4.40
2023-10-08T02:01:12.927Z,4.53
2023-10-08T02:03:40.163Z,4.77
2023-10-08T02:06:09.860Z,4.40
2023-10-08T02:08:37.869Z,4.63
2023-10-08T02:11:05.192Z,4.10
2023-10-08T02:13:31.901Z,4.80
2023-10-08T02:15:59.278Z,5.30
2023-10-08T02:18:26.795Z,5.00
2023-10-08T02:20:53.988Z,4.80
2023-10-08T02:23:20.847Z,4.30
2023-10-08T02:25:49.041Z,4.87
2023-10-08T02:28:21.516Z,4.50
2023-10-08T02:30:48.375Z,5.40
2023-10-08T02:33:15.328Z,4.67
2023-10-08T02:35:46.549Z,4.60
2023-10-08T02:38:18.166Z,4.07
2023-10-08T02:40:49.556Z,5.13
2023-10-08T02:43:17.200Z,5.10
2023-10-08T02:45:48.694Z,4.77
2023-10-08T02:48:17.871Z,4.53
2023-10-08T02:50:46.570Z,5.43
2023-10-08T02:53:13.759Z,4.83
2023-10-08T02:55:47.861Z,5.20
2023-10-08T02:58:16.379Z,4.90
2023-10-08T03:00:47.822Z,5.20
2023-10-08T03:03:19.743Z,4.90
2023-10-08T03:05:47.809Z,5.10
2023-10-08T03:08:22.522Z,5.90
2023-10-08T03:10:56.664Z,5.73
2023-10-08T03:13:24.395Z,5.03
2023-10-08T03:16:20.335Z,5.53
2023-10-08T03:18:51.278Z,4.33
2023-10-08T03:21:24.685Z,4.50
2023-10-08T03:23:52.256Z,5.57
2023-10-08T03:26:34.845Z,5.00
2023-10-08T03:29:07.462Z,5.13
2023-10-08T03:31:49.232Z,4.43
2023-10-08T03:34:20.716Z,4.80
2023-10-08T03:36:50.770Z,4.73
2023-10-08T03:39:19.860Z,4.87
2023-10-08T03:42:07.375Z,5.60
2023-10-08T03:44:38.154Z,4.80
2023-10-08T03:47:12.093Z,4.80
2023-10-08T03:49:46.308Z,5.23
2023-10-08T03:52:14.127Z,5.30
2023-10-08T03:54:49.318Z,5.30
2023-10-08T03:57:20.055Z,5.10
2023-10-08T03:59:49.563Z,5.50
2023-10-08T04:02:25.641Z,4.63
2023-10-08T04:04:54.087Z,5.40
2023-10-08T04:07:26.028Z,4.40
2023-10-08T04:10:11.075Z,4.77
2023-10-08T04:12:44.890Z,5.27
2023-10-08T04:15:13.531Z,5.80
2023-10-08T04:17:46.820Z,5.00
2023-10-08T04:20:34.722Z,4.60
2023-10-08T04:23:05.636Z,5.23
2023-10-08T04:25:33.895Z,5.10
2023-10-08T04:28:01.567Z,5.33
2023-10-08T04:30:34.176Z,4.23
2023-10-08T04:33:08.518Z,5.67
2023-10-08T04:35:49.306Z,4.40
2023-10-08T04:38:19.825Z,4.80
2023-10-08T04:40:49.742Z,4.80
2023-10-08T04:43:23.867Z,4.63
2023-10-08T04:45:50.946Z,3.97
2023-10-08T04:48:21.527Z,5.10
2023-10-08T04:50:59.221Z,5.60
2023-10-08T04:53:37.335Z,5.00
2023-10-08T04:56:17.883Z,4.77
2023-10-08T04:58:48.711Z,5.10
2023-10-08T05:01:20.273Z,4.60
2023-10-08T05:04:15.789Z,4.77
2023-10-08T05:06:45.531Z,4.70
2023-10-08T05:09:19.676Z,4.90
2023-10-08T05:11:51.774Z,5.13
2023-10-08T05:14:33.004Z,5.77
2023-10-08T05:17:10.587Z,5.33
2023-10-08T05:19:40.844Z,6.13
2023-10-08T05:22:29.361Z,6.20
2023-10-08T05:25:16.392Z,6.00
2023-10-08T05:27:50.145Z,5.70
2023-10-08T05:30:26.517Z,4.57
2023-10-08T05:33:15.924Z,5.40
2023-10-08T05:35:44.537Z,6.30
2023-10-08T05:38:35.069Z,5.33
2023-10-08T05:41:01.903Z,5.03
2023-10-08T05:43:40.232Z,4.90
2023-10-08T05:46:23.156Z,4.93
2023-10-08T05:49:09.176Z,6.07
2023-10-08T05:51:48.255Z,5.33
2023-10-08T05:54:32.103Z,5.60
2023-10-08T05:57:13.589Z,6.10
2023-10-08T05:59:59.146Z,5.50
2023-10-08T06:02:34.207Z,5.30
2023-10-08T06:05:15.793Z,6.80
2023-10-08T06:07:54.658Z,5.23
2023-10-08T06:10:40.424Z,5.70
2023-10-08T06:13:14.644Z,5.03
2023-10-08T06:15:52.203Z,5.67
2023-10-08T06:18:20.398Z,5.57
2023-10-08T06:20:47.900Z,4.80
2023-10-08T06:23:20.220Z,5.33
2023-10-08T06:26:00.077Z,6.00
2023-10-08T06:28:27.858Z,5.00
2023-10-08T06:30:56.499Z,5.70
2023-10-08T06:33:32.082Z,6.00
2023-10-08T06:36:14.339Z,5.27
2023-10-08T06:38:45.560Z,5.10
2023-10-08T06:41:37.188Z,4.93
2023-10-08T06:44:15.206Z,5.03
2023-10-08T06:46:42.743Z,5.00
2023-10-08T06:49:14.173Z,5.10
2023-10-08T06:51:43.051Z,4.73
2023-10-08T06:54:11.837Z,5.77
2023-10-08T06:56:38.994Z,5.13
2023-10-08T06:59:06.711Z,4.90
2023-10-08T07:01:46.975Z,5.67
2023-10-08T07:04:15.124Z,5.03
2023-10-08T07:06:44.094Z,5.20
2023-10-08T07:09:30.712Z,5.00
2023-10-08T07:11:58.830Z,4.47
2023-10-08T07:14:30.682Z,5.40
2023-10-08T07:17:00.531Z,4.53
2023-10-08T07:19:38.588Z,5.30
2023-10-08T07:22:19.781Z,6.03
2023-10-08T07:24:47.773Z,6.70
2023-10-08T07:27:14.907Z,7.23
2023-10-08T07:29:42.106Z,7.00
2023-10-08T07:32:11.602Z,6.07
2023-10-08T07:34:40.016Z,5.70
2023-10-08T07:37:12.545Z,5.90
2023-10-08T07:39:47.718Z,5.00
2023-10-08T07:42:14.796Z,6.43
2023-10-08T07:44:41.551Z,6.10
2023-10-08T07:47:12.952Z,5.97
2023-10-08T07:49:40.073Z,6.00
2023-10-08T07:52:07.467Z,6.27
2023-10-08T07:54:35.586Z,5.00
2023-10-08T07:57:14.195Z,5.40
2023-10-08T07:59:47.798Z,5.40
2023-10-08T08:02:18.117Z,5.63
2023-10-08T08:04:46.386Z,4.87
2023-10-08T08:07:17.316Z,6.20
2023-10-08T08:09:53.187Z,6.77
2023-10-08T08:12:23.869Z,6.30
2023-10-08T08:14:55.336Z,5.40
2023-10-08T08:17:23.802Z,6.30
2023-10-08T08:19:52.866Z,6.40
2023-10-08T08:22:24.972Z,6.40
2023-10-08T08:25:08.234Z,8.30
2023-10-08T08:27:35.000Z,9.30
2023-10-08T08:30:11.779Z,7.03
2023-10-08T08:32:44.265Z,7.47
2023-10-08T08:35:12.239Z,7.00
2023-10-08T08:37:40.713Z,6.70
2023-10-08T08:40:21.151Z,6.47
2023-10-08T08:42:51.098Z,7.30
2023-10-08T08:45:21.520Z,7.37
2023-10-08T08:47:48.974Z,8.27
2023-10-08T08:50:16.315Z,8.67
2023-10-08T08:52:43.225Z,7.90
2023-10-08T08:55:18.325Z,10.27
2023-10-08T08:57:50.637Z,8.90
2023-10-08T09:00:19.526Z,8.83
2023-10-08T09:02:49.431Z,8.27
2023-10-08T09:05:27.012Z,8.20
2023-10-08T09:08:06.784Z,7.60
2023-10-08T09:10:39.139Z,8.00
2023-10-08T09:13:08.613Z,9.07
2023-10-08T09:15:35.876Z,8.90
2023-10-08T09:18:04.082Z,9.20
2023-10-08T09:20:32.748Z,8.13
2023-10-08T09:23:12.967Z,9.63
2023-10-08T09:25:41.314Z,9.00
2023-10-08T09:28:09.032Z,7.80
2023-10-08T09:30:39.450Z,8.40
2023-10-08T09:33:07.453Z,8.77
2023-10-08T09:35:34.982Z,8.47
2023-10-08T09:38:04.691Z,7.60
2023-10-08T09:40:31.827Z,8.80
2023-10-08T09:43:00.337Z,7.67
2023-10-08T09:45:27.489Z,7.57
2023-10-08T09:47:56.447Z,8.30
2023-10-08T09:50:30.681Z,9.57
2023-10-08T09:53:18.123Z,8.63
2023-10-08T09:55:52.993Z,10.20
2023-10-08T09:58:20.372Z,10.33
2023-10-08T10:00:49.994Z,10.23
2023-10-08T10:05:49.036Z,10.07
2023-10-08T10:08:16.305Z,10.00
2023-10-08T10:10:49.111Z,10.43
2023-10-08T10:13:17.940Z,10.77
2023-10-08T10:15:47.574Z,11.13
2023-10-08T10:18:17.307Z,10.30
2023-10-08T10:20:52.370Z,10.50
2023-10-08T10:23:41.914Z,10.60
2023-10-08T10:26:29.255Z,10.80
2023-10-08T10:29:17.409Z,11.30
2023-10-08T10:31:50.553Z,10.73
2023-10-08T10:34:40.438Z,10.23
2023-10-08T10:37:10.987Z,11.43
2023-10-08T10:39:42.840Z,11.60
2023-10-08T10:42:21.487Z,11.93
2023-10-08T10:44:54.451Z,11.10
2023-10-08T10:47:21.497Z,12.37
2023-10-08T10:49:55.926Z,11.97
2023-10-08T10:52:32.953Z,10.70
2023-10-08T10:55:17.429Z,12.77
2023-10-08T10:57:56.010Z,12.77
2023-10-08T11:00:33.047Z,12.70
2023-10-08T11:03:06.272Z,13.00
2023-10-08T11:05:38.935Z,12.73
2023-10-08T11:08:08.448Z,10.73
2023-10-08T11:10:47.126Z,14.07
2023-10-08T11:13:17.088Z,11.37
2023-10-08T11:15:50.335Z,10.73
2023-10-08T11:18:29.306Z,11.70
2023-10-08T11:21:25.067Z,11.80
2023-10-08T11:23:54.756Z,12.27
2023-10-08T11:26:33.322Z,11.80
2023-10-08T11:29:04.885Z,11.50
2023-10-08T11:31:35.084Z,12.00
2023-10-08T11:34:11.209Z,11.30
2023-10-08T11:36:54.194Z,9.30
2023-10-08T11:39:24.181Z,11.20
2023-10-08T11:42:05.381Z,11.63
2023-10-08T11:44:37.248Z,11.43
2023-10-08T11:47:21.994Z,10.70
2023-10-08T11:49:51.484Z,11.27
2023-10-08T11:52:22.346Z,10.77
2023-10-08T11:54:49.996Z,12.30
2023-10-08T11:57:24.021Z,11.07
2023-10-08T11:59:55.422Z,12.17
2023-10-08T12:02:22.790Z,13.23
2023-10-08T12:04:49.829Z,11.27
2023-10-08T12:07:18.807Z,12.20
2023-10-08T12:09:49.433Z,10.57
2023-10-08T12:12:17.042Z,11.27
2023-10-08T12:14:46.570Z,10.27
2023-10-08T12:17:13.582Z,11.50
2023-10-08T12:19:44.204Z,12.00
2023-10-08T12:22:15.176Z,11.40
2023-10-08T12:24:43.512Z,12.30
2023-10-08T12:27:12.878Z,12.00
2023-10-08T12:29:39.997Z,11.87
2023-10-08T12:32:18.749Z,11.30
2023-10-08T12:34:46.140Z,12.43
2023-10-08T12:37:15.924Z,12.47
2023-10-08T12:39:57.944Z,12.03
2023-10-08T12:42:26.528Z,10.70
2023-10-08T12:44:53.352Z,10.80
2023-10-08T12:47:20.172Z,11.67
2023-10-08T12:49:47.899Z,10.80
2023-10-08T12:52:15.812Z,11.90
2023-10-08T12:54:46.552Z,10.73
2023-10-08T12:57:17.444Z,11.30
2023-10-08T12:59:49.505Z,10.87
2023-10-08T13:02:17.733Z,10.90
2023-10-08T13:04:46.787Z,10.70
2023-10-08T13:07:15.350Z,9.17
2023-10-08T13:09:44.140Z,11.60
2023-10-08T13:12:11.406Z,10.43
2023-10-08T13:14:38.700Z,10.83
2023-10-08T13:17:05.495Z,10.70
2023-10-08T13:19:35.099Z,11.20
2023-10-08T13:22:02.422Z,10.93
2023-10-08T13:24:30.254Z,10.20
2023-10-08T13:26:59.518Z,11.10
2023-10-08T13:29:34.017Z,10.70
2023-10-08T13:32:01.117Z,11.30
2023-10-08T13:34:28.061Z,10.50
2023-10-08T13:36:55.153Z,10.90
2023-10-08T13:39:22.468Z,11.03
2023-10-08T13:41:49.513Z,11.40
2023-10-08T13:44:16.723Z,10.57
2023-10-08T13:46:49.901Z,10.40
2023-10-08T13:49:17.754Z,11.73
2023-10-08T13:51:46.854Z,10.13
2023-10-08T13:54:13.961Z,11.00
2023-10-08T13:56:48.854Z,25.77
2023-10-08T13:59:15.826Z,10.83
2023-10-08T14:01:47.373Z,10.97
2023-10-08T14:04:20.646Z,11.50
2023-10-08T14:06:53.874Z,10.87
2023-10-08T14:09:22.094Z,10.57
2023-10-08T14:11:51.579Z,12.30
2023-10-08T14:14:20.776Z,11.40
2023-10-08T14:16:53.671Z,10.73
2023-10-08T14:19:29.315Z,10.63
2023-10-08T14:22:01.496Z,11.90
2023-10-08T14:24:32.471Z,10.63
2023-10-08T14:27:04.049Z,10.47
2023-10-08T14:29:31.266Z,10.23
2023-10-08T14:31:58.134Z,11.20
2023-10-08T14:34:43.894Z,8.97
2023-10-08T14:37:29.493Z,10.00
2023-10-08T14:40:15.248Z,10.13
2023-10-08T14:42:59.665Z,12.03
2023-10-08T14:45:32.517Z,11.00
2023-10-08T14:48:00.031Z,11.57
2023-10-08T14:50:28.751Z,10.40
2023-10-08T14:52:56.181Z,11.97
2023-10-08T14:55:24.269Z,10.80
2023-10-08T14:57:54.357Z,10.60
2023-10-08T15:00:25.852Z,9.97
2023-10-08T15:02:57.125Z,10.30
2023-10-08T15:05:24.550Z,12.63
2023-10-08T15:07:52.744Z,11.47
2023-10-08T15:10:20.453Z,13.50
2023-10-08T15:12:47.260Z,13.40
2023-10-08T15:15:14.764Z,10.47
2023-10-08T15:17:44.338Z,11.43
2023-10-08T15:20:20.567Z,11.13
2023-10-08T15:22:49.143Z,10.80
2023-10-08T15:25:20.981Z,13.80
2023-10-08T15:27:49.920Z,10.10
2023-10-08T15:30:20.674Z,11.90
2023-10-08T15:32:49.047Z,15.33
2023-10-08T15:35:21.524Z,12.40
2023-10-08T15:37:48.892Z,10.70
2023-10-08T15:40:19.117Z,11.50
2023-10-08T15:42:53.335Z,11.90
2023-10-08T15:45:25.353Z,11.60
2023-10-08T15:47:53.394Z,10.33
2023-10-08T15:50:26.801Z,10.40
2023-10-08T15:52:55.101Z,10.73
2023-10-08T15:55:23.852Z,12.03
2023-10-08T15:57:51.749Z,11.40
2023-10-08T16:00:19.440Z,10.53
2023-10-08T16:02:47.765Z,11.50
2023-10-08T16:05:15.897Z,11.50
2023-10-08T16:07:43.459Z,11.73
2023-10-08T16:10:11.148Z,10.93
2023-10-08T16:12:37.956Z,11.10
2023-10-08T16:15:06.653Z,12.63
2023-10-08T16:17:34.399Z,11.77
2023-10-08T16:20:10.408Z,12.10
2023-10-08T16:22:37.780Z,11.77
2023-10-08T16:25:05.549Z,13.27
2023-10-08T16:27:35.375Z,13.87
2023-10-08T16:30:02.835Z,12.93
2023-10-08T16:32:29.641Z,12.30
2023-10-08T16:34:57.441Z,11.90
2023-10-08T16:37:24.147Z,11.67
2023-10-08T16:39:51.886Z,11.97
2023-10-08T16:42:19.129Z,12.00
2023-10-08T16:44:46.493Z,10.97
2023-10-08T16:47:13.498Z,12.43
2023-10-08T16:49:40.460Z,11.43
2023-10-08T16:52:07.889Z,11.73
2023-10-08T16:54:34.627Z,12.20
2023-10-08T16:57:01.395Z,14.40
2023-10-08T16:59:28.352Z,12.87
2023-10-08T17:01:55.105Z,11.77
2023-10-08T17:04:22.154Z,11.97
2023-10-08T17:06:49.047Z,11.30
2023-10-08T17:09:17.612Z,12.80
2023-10-08T17:11:48.546Z,11.00
2023-10-08T17:14:15.940Z,11.50
2023-10-08T17:16:44.222Z,10.70
2023-10-08T17:19:12.197Z,11.77
2023-10-08T17:21:39.400Z,12.47
2023-10-08T17:24:10.399Z,13.50
2023-10-08T17:26:38.720Z,35.50
2023-10-08T17:29:09.681Z,40.97
2023-10-08T17:31:38.711Z,19.70
2023-10-08T17:34:10.846Z,48.67
2023-10-08T17:36:37.729Z,45.87
2023-10-08T17:39:34.456Z,46.30
2023-10-08T17:42:01.901Z,36.90
2023-10-08T17:44:29.063Z,34.13
2023-10-08T17:46:57.614Z,25.73
2023-10-08T17:49:24.437Z,17.53
2023-10-08T17:51:51.246Z,15.07
2023-10-08T17:54:18.473Z,14.33
2023-10-08T17:56:45.252Z,14.30
2023-10-08T17:59:15.162Z,20.57
2023-10-08T18:01:43.254Z,14.87
2023-10-08T18:04:14.302Z,16.60
2023-10-08T18:06:45.208Z,16.70
2023-10-08T18:09:12.754Z,17.73
2023-10-08T18:11:43.655Z,20.20
2023-10-08T18:14:15.268Z,20.87
2023-10-08T18:16:47.166Z,17.30
2023-10-08T18:19:19.425Z,18.33
2023-10-08T18:21:46.473Z,17.13
2023-10-08T18:24:15.891Z,16.03
2023-10-08T18:26:42.886Z,16.53
2023-10-08T18:29:14.412Z,18.67
2023-10-08T18:31:45.797Z,21.07
2023-10-08T18:34:16.746Z,21.00
2023-10-08T18:36:43.530Z,21.40
2023-10-08T18:39:17.106Z,24.00
2023-10-08T18:41:44.836Z,22.30
2023-10-08T18:44:14.395Z,20.50
2023-10-08T18:46:42.832Z,22.13
2023-10-08T18:49:11.537Z,20.53
2023-10-08T18:51:43.528Z,21.07
2023-10-08T18:54:13.141Z,21.90
2023-10-08T18:56:40.695Z,18.43
2023-10-08T18:59:10.277Z,18.07
2023-10-08T19:01:38.916Z,17.50
2023-10-08T19:04:08.994Z,17.13
2023-10-08T19:06:36.768Z,19.70
2023-10-08T19:09:04.944Z,19.10
2023-10-08T19:11:33.971Z,16.20
2023-10-08T19:14:01.141Z,17.40
2023-10-08T19:16:27.965Z,18.37
2023-10-08T19:18:55.968Z,20.30
2023-10-08T19:21:29.892Z,17.03
2023-10-08T19:23:58.494Z,16.77
2023-10-08T19:26:28.902Z,16.60
2023-10-08T19:28:56.300Z,16.10
2023-10-08T19:31:23.557Z,15.03
2023-10-08T19:33:50.560Z,16.53
2023-10-08T19:36:18.868Z,18.80
2023-10-08T19:38:46.354Z,19.20
2023-10-08T19:41:18.515Z,15.17
2023-10-08T19:43:45.416Z,16.30
2023-10-08T19:46:16.100Z,17.40
2023-10-08T19:48:43.066Z,27.67
2023-10-08T19:51:16.143Z,21.57
2023-10-08T19:53:44.653Z,18.37
2023-10-08T19:56:12.795Z,16.77
2023-10-08T19:58:40.504Z,17.30
2023-10-08T20:01:07.884Z,16.97
2023-10-08T20:03:35.202Z,15.70
2023-10-08T20:06:03.134Z,17.13
2023-10-08T20:08:31.138Z,28.23
2023-10-08T20:10:57.869Z,24.40
2023-10-08T20:13:25.486Z,38.30
2023-10-08T20:15:52.656Z,17.27
2023-10-08T20:18:23.229Z,14.23
2023-10-08T20:20:52.120Z,16.03
2023-10-08T20:23:21.006Z,16.47
2023-10-08T20:25:52.212Z,13.60
2023-10-08T20:28:26.146Z,16.17
2023-10-08T20:30:54.540Z,14.13
2023-10-08T20:33:22.022Z,14.60
2023-10-08T20:35:52.913Z,14.77
2023-10-08T20:38:19.880Z,14.73
2023-10-08T20:40:47.073Z,15.90
2023-10-08T20:43:16.315Z,15.10
2023-10-08T20:45:43.646Z,16.40
2023-10-08T20:48:14.689Z,14.80
2023-10-08T20:50:43.644Z,15.17
2023-10-08T20:53:11.899Z,14.33
2023-10-08T20:55:42.747Z,14.60
2023-10-08T20:58:10.314Z,15.37
2023-10-08T21:00:43.346Z,15.30
2023-10-08T21:03:14.777Z,14.50
2023-10-08T21:05:43.952Z,14.00
2023-10-08T21:08:14.539Z,14.67
2023-10-08T21:13:13.775Z,13.47
2023-10-08T21:15:42.032Z,14.37
2023-10-08T21:18:08.935Z,13.13
2023-10-08T21:20:35.772Z,13.87
2023-10-08T21:23:06.121Z,15.50
2023-10-08T21:25:33.205Z,13.13
2023-10-08T21:28:01.730Z,15.07
2023-10-08T21:30:28.904Z,14.23
2023-10-08T21:32:56.658Z,15.80
2023-10-08T21:35:23.896Z,15.93
2023-10-08T21:37:52.149Z,14.90
2023-10-08T21:40:21.514Z,14.70
2023-10-08T21:42:52.659Z,14.33
2023-10-08T21:45:20.277Z,13.57
2023-10-08T21:47:49.161Z,15.00
2023-10-08T21:50:18.437Z,13.70
2023-10-08T21:52:48.164Z,15.70
2023-10-08T21:55:17.060Z,15.37
2023-10-08T21:57:46.511Z,16.40
2023-10-08T22:00:26.007Z,17.03
2023-10-08T22:02:59.664Z,18.47
2023-10-08T22:05:30.671Z,19.23
2023-10-08T22:08:04.836Z,18.00
2023-10-08T22:10:34.551Z,18.00
2023-10-08T22:13:04.982Z,19.17
2023-10-08T22:15:31.899Z,19.23
2023-10-08T22:18:03.541Z,18.50
2023-10-08T22:20:39.626Z,19.30
2023-10-08T22:23:09.246Z,18.80
2023-10-08T22:25:43.684Z,18.53
2023-10-08T22:28:13.423Z,19.77
2023-10-08T22:30:43.795Z,19.20
2023-10-08T22:33:12.811Z,21.33
2023-10-08T22:35:46.132Z,21.77
2023-10-08T22:38:18.599Z,19.80
2023-10-08T22:41:01.148Z,19.70
2023-10-08T22:43:37.663Z,19.27
2023-10-08T22:46:08.794Z,20.70
2023-10-08T22:48:37.637Z,18.67
2023-10-08T22:51:10.896Z,19.60
2023-10-08T22:53:42.818Z,20.67
2023-10-08T22:56:11.697Z,20.57
2023-10-08T22:58:40.178Z,20.87
2023-10-08T23:01:19.646Z,20.80
2023-10-08T23:03:51.300Z,18.40
2023-10-08T23:06:20.598Z,18.60
2023-10-08T23:08:48.412Z,18.47
2023-10-08T23:11:15.977Z,17.47
2023-10-08T23:13:43.839Z,18.80
2023-10-08T23:16:15.509Z,20.90
2023-10-08T23:18:44.275Z,16.50
2023-10-08T23:21:12.664Z,17.90
2023-10-08T23:23:40.083Z,17.73
2023-10-08T23:26:08.025Z,18.70
2023-10-08T23:28:35.905Z,16.43
2023-10-08T23:31:09.597Z,16.87
2023-10-08T23:33:40.388Z,15.57
2023-10-08T23:36:09.674Z,15.97
2023-10-08T23:38:40.089Z,16.30
2023-10-08T23:41:18.029Z,15.20
2023-10-08T23:43:54.589Z,15.00
2023-10-08T23:46:31.982Z,15.30
2023-10-08T23:49:19.929Z,15.40
2023-10-08T23:51:52.377Z,17.13
2023-10-08T23:54:26.371Z,14.60
2023-10-08T23:56:59.241Z,15.30
2023-10-08T23:59:40.917Z,14.93
